ADDS METAR Data INFO
IDs: Format: Raw Decoded Include TAF

Data at: 1925 UTC 19 Jul 2018

K2C8 191915Z AUTO 18006KT 10SM CLR 28/21 A2979 RMK AO2 LTG DSNT NW-E
K2C8 191855Z AUTO 18007KT 9SM CLR 27/21 A2979 RMK AO2
K2C8 191835Z AUTO 19006KT 9SM CLR 27/21 A2979 RMK AO2
K2C8 191815Z AUTO VRB04KT 10SM CLR 26/21 A2979 RMK AO2
K2C8 191755Z AUTO VRB04KT 9SM FEW095 26/21 A2979 RMK AO2
K2C8 191735Z AUTO 22004KT 9SM FEW090 26/21 A2979 RMK AO2
K2C8 191715Z AUTO 21004KT 10SM FEW090 FEW120 25/21 A2979 RMK AO2
K2C8 191655Z AUTO 24005KT 10SM CLR 25/21 A2979 RMK AO2
K2C8 191635Z AUTO 21006KT 9SM CLR 25/21 A2979 RMK AO2
K2C8 191615Z AUTO 00000KT 9SM CLR 24/21 A2979 RMK AO2
K2C8 191555Z AUTO 20005KT 10SM CLR 23/20 A2979 RMK AO2
K2C8 191535Z AUTO 20004KT 8SM CLR 23/20 A2980 RMK AO2
K2C8 191515Z AUTO 19004KT 9SM FEW090 23/20 A2979 RMK AO2
K2C8 191455Z AUTO VRB04KT 9SM CLR 22/20 A2979 RMK AO2
K2C8 191435Z AUTO 20004KT 9SM CLR 21/19 A2980 RMK AO2
K2C8 191415Z AUTO 21004KT 10SM CLR 21/19 A2979 RMK AO2 LTG DSNT NW
K2C8 191355Z AUTO VRB04KT 9SM CLR 20/19 A2979 RMK AO2
K2C8 191335Z AUTO 17005KT 9SM CLR 20/19 A2979 RMK AO2
K2C8 191315Z AUTO 19003KT 9SM CLR 20/19 A2980 RMK AO2
K2C8 191255Z AUTO 19004KT 9SM CLR 19/19 A2980 RMK AO2
K2C8 191235Z AUTO 00000KT 7SM CLR 19/19 A2980 RMK AO2
K2C8 191215Z AUTO 00000KT 9SM CLR 19/18 A2980 RMK AO2
K2C8 191155Z AUTO 00000KT 10SM CLR 19/18 A2980 RMK AO2
K2C8 191135Z AUTO 18003KT 9SM CLR 18/18 A2979 RMK AO2
K2C8 191115Z AUTO 18004KT 8SM CLR 18/18 A2979 RMK AO2
K2C8 191055Z AUTO 18004KT 6SM BR CLR 18/17 A2979 RMK AO2
K2C8 191035Z AUTO 00000KT 10SM CLR 18/18 A2979 RMK AO2
K2C8 191015Z AUTO 22003KT 10SM CLR 18/17 A2980 RMK AO2
K2C8 190955Z AUTO 20004KT 9SM CLR 18/17 A2980 RMK AO2
K2C8 190935Z AUTO 21004KT 9SM CLR 19/18 A2980 RMK AO2
K2C8 190915Z AUTO 20004KT 10SM CLR 19/18 A2981 RMK AO2
K2C8 190855Z AUTO 18005KT 10SM CLR 19/18 A2981 RMK AO2
K2C8 190835Z AUTO 19003KT 10SM CLR 18/18 A2982 RMK AO2
K2C8 190815Z AUTO 19004KT 10SM CLR 18/18 A2983 RMK AO2
K2C8 190755Z AUTO 00000KT 10SM CLR 19/18 A2983 RMK AO2
K2C8 190735Z AUTO 19004KT 10SM CLR 19/17 A2983 RMK AO2
K2C8 190715Z AUTO 19004KT 10SM CLR 18/17 A2984 RMK AO2
K2C8 190655Z AUTO 19004KT 8SM CLR 18/17 A2984 RMK AO2
K2C8 190635Z AUTO 20004KT 10SM CLR 18/17 A2984 RMK AO2
K2C8 190615Z AUTO 00000KT 10SM CLR 19/17 A2985 RMK AO2
K2C8 190555Z AUTO 22003KT 10SM CLR 19/17 A2985 RMK AO2
K2C8 190535Z AUTO 21003KT 10SM CLR 19/17 A2984 RMK AO2
K2C8 190515Z AUTO VRB03KT 10SM CLR 20/17 A2985 RMK AO2
K2C8 190455Z AUTO 23003KT 10SM CLR 19/17 A2985 RMK AO2
K2C8 190435Z AUTO 18005KT 10SM CLR 20/17 A2985 RMK AO2
K2C8 190415Z AUTO 20005KT 10SM CLR 21/17 A2984 RMK AO2
K2C8 190355Z AUTO 20006KT 10SM CLR 21/17 A2984 RMK AO2
K2C8 190335Z AUTO 20004KT 10SM CLR 21/17 A2985 RMK AO2
K2C8 190315Z AUTO 19006KT 10SM CLR 22/17 A2985 RMK AO2
K2C8 190255Z AUTO 20006KT 10SM CLR 23/17 A2985 RMK AO2
K2C8 190235Z AUTO 19004KT 10SM CLR 23/17 A2984 RMK AO2
K2C8 190215Z AUTO 19005KT 10SM CLR 23/17 A2984 RMK AO2
K2C8 190155Z AUTO 21004KT 10SM CLR 25/16 A2984 RMK AO2
K2C8 190135Z AUTO 19005KT 10SM CLR 26/16 A2984 RMK AO2
K2C8 190115Z AUTO 18007KT 10SM CLR 27/20 A2984 RMK AO2
K2C8 190055Z AUTO 16006KT 10SM CLR 27/20 A2985 RMK AO2
K2C8 190035Z AUTO 16008KT 130V200 10SM FEW075 28/20 A2985 RMK AO2
K2C8 190015Z AUTO 15010KT 10SM CLR 29/19 A2986 RMK AO2
K2C8 182355Z AUTO 16009KT 10SM CLR 29/18 A2986 RMK AO2
K2C8 182335Z AUTO 15009KT 10SM CLR 30/18 A2986 RMK AO2
K2C8 182315Z AUTO 18009G14KT 10SM CLR 30/18 A2986 RMK AO2
K2C8 182255Z AUTO 17010KT 9SM CLR 30/19 A2987 RMK AO2
K2C8 182235Z AUTO 17007KT 140V200 9SM CLR 29/20 A2987 RMK AO2
K2C8 182215Z AUTO 15009KT 10SM CLR 30/20 A2988 RMK AO2
K2C8 182155Z AUTO 15009G15KT 9SM CLR 30/19 A2988 RMK AO2
K2C8 182135Z AUTO 16009KT 10SM CLR 30/20 A2989 RMK AO2
K2C8 182115Z AUTO 15008KT 120V180 10SM CLR 29/20 A2990 RMK AO2
K2C8 182055Z AUTO 14008G15KT 9SM CLR 29/20 A2991 RMK AO2
K2C8 182035Z AUTO 16008G16KT 10SM CLR 29/20 A2991 RMK AO2
K2C8 182015Z AUTO 17009KT 10SM CLR 29/20 A2992 RMK AO2
K2C8 181955Z AUTO 17010KT 9SM CLR 28/19 A2992 RMK AO2
K2C8 181935Z AUTO 18010KT 10SM CLR 28/20 A2993 RMK AO2
K2C8 181915Z AUTO 14007G14KT 10SM CLR 27/19 A2994 RMK AO2
K2C8 181855Z AUTO 17011KT 9SM CLR 27/19 A2994 RMK AO2
K2C8 181835Z AUTO 16010KT 10SM CLR 27/18 A2995 RMK AO2
K2C8 181815Z AUTO 17008G14KT 10SM CLR 27/18 A2995 RMK AO2
K2C8 181755Z AUTO 18010G16KT 9SM CLR 27/18 A2996 RMK AO2
K2C8 181735Z AUTO 18011G18KT 9SM CLR 26/17 A2996 RMK AO2
K2C8 181715Z AUTO 16009KT 140V200 10SM CLR 26/17 A2997 RMK AO2
K2C8 181655Z AUTO 15011KT 9SM CLR 26/17 A2998 RMK AO2
K2C8 181635Z AUTO 17010G15KT 10SM CLR 25/17 A2998 RMK AO2
K2C8 181615Z AUTO 16011KT 9SM CLR 24/16 A2999 RMK AO2
K2C8 181555Z AUTO 17010KT 9SM CLR 24/16 A2999 RMK AO2
K2C8 181535Z AUTO 17009G14KT 9SM CLR 24/15 A3000 RMK AO2
K2C8 181515Z AUTO 18008G13KT 10SM CLR 23/15 A3001 RMK AO2
K2C8 181455Z AUTO 18007G12KT 10SM CLR 22/15 A3001 RMK AO2
K2C8 181435Z AUTO 18008KT 10SM CLR 22/15 A3001 RMK AO2
K2C8 181415Z AUTO 19007G12KT 150V220 10SM CLR 21/14 A3002 RMK AO2
K2C8 181355Z AUTO 19007KT 10SM CLR 20/14 A3002 RMK AO2
K2C8 181335Z AUTO 19008KT 10SM CLR 19/14 A3003 RMK AO2
K2C8 181315Z AUTO 18007KT 10SM CLR 18/14 A3003 RMK AO2
K2C8 181255Z AUTO 18004KT 10SM CLR 16/14 A3003 RMK AO2
K2C8 181235Z AUTO 18004KT 10SM CLR 16/14 A3003 RMK AO2
K2C8 181215Z AUTO 18004KT 10SM CLR 15/14 A3003 RMK AO2
K2C8 181155Z AUTO 00000KT 10SM CLR 14/13 A3003 RMK AO2
K2C8 181135Z AUTO 18003KT 10SM CLR 13/12 A3003 RMK AO2
K2C8 181115Z AUTO 18005KT 10SM CLR 13/12 A3003 RMK AO2
K2C8 181055Z AUTO 19003KT 10SM CLR 12/12 A3003 RMK AO2
K2C8 181035Z AUTO 18004KT 10SM CLR 13/12 A3004 RMK AO2
K2C8 181015Z AUTO 18004KT 10SM CLR 13/12 A3004 RMK AO2
K2C8 180955Z AUTO 18003KT 10SM CLR 12/12 A3004 RMK AO2
K2C8 180935Z AUTO 18005KT 10SM CLR 13/12 A3004 RMK AO2
K2C8 180915Z AUTO 00000KT 10SM CLR 13/12 A3004 RMK AO2
K2C8 180855Z AUTO 21004KT 10SM CLR 13/12 A3004 RMK AO2
K2C8 180835Z AUTO 21003KT 10SM CLR 13/13 A3004 RMK AO2
K2C8 180815Z AUTO 00000KT 10SM CLR 13/12 A3004 RMK AO2
K2C8 180755Z AUTO 00000KT 10SM CLR 14/13 A3004 RMK AO2
K2C8 180735Z AUTO 19003KT 10SM CLR 13/13 A3004 RMK AO2